sensor_id;sensor_type;location;lat;lon;timestamp;P1;durP1;ratioP1;P2;durP2;ratioP2
10335;SDS011;5213;53.548;9.930;2023-06-14T00:02:09;5.18;;;3.05;;
10335;SDS011;5213;53.548;9.930;2023-06-14T00:04:35;3.25;;;2.95;;
10335;SDS011;5213;53.548;9.930;2023-06-14T00:07:02;4.18;;;2.85;;
10335;SDS011;5213;53.548;9.930;2023-06-14T00:09:28;4.35;;;2.88;;
10335;SDS011;5213;53.548;9.930;2023-06-14T00:11:54;5.50;;;2.60;;
10335;SDS011;5213;53.548;9.930;2023-06-14T00:14:20;3.78;;;2.90;;
10335;SDS011;5213;53.548;9.930;2023-06-14T00:16:46;4.18;;;2.67;;
10335;SDS011;5213;53.548;9.930;2023-06-14T00:19:13;3.28;;;2.92;;
10335;SDS011;5213;53.548;9.930;2023-06-14T00:21:39;3.83;;;2.80;;
10335;SDS011;5213;53.548;9.930;2023-06-14T00:24:05;3.25;;;2.83;;
10335;SDS011;5213;53.548;9.930;2023-06-14T00:26:31;3.47;;;2.85;;
10335;SDS011;5213;53.548;9.930;2023-06-14T00:28:57;3.13;;;2.70;;
10335;SDS011;5213;53.548;9.930;2023-06-14T00:31:23;3.22;;;2.92;;
10335;SDS011;5213;53.548;9.930;2023-06-14T00:33:49;3.00;;;2.80;;
10335;SDS011;5213;53.548;9.930;2023-06-14T00:36:15;5.15;;;3.00;;
10335;SDS011;5213;53.548;9.930;2023-06-14T00:38:41;4.90;;;3.00;;
10335;SDS011;5213;53.548;9.930;2023-06-14T00:41:07;4.03;;;3.05;;
10335;SDS011;5213;53.548;9.930;2023-06-14T00:43:34;4.82;;;3.10;;
10335;SDS011;5213;53.548;9.930;2023-06-14T00:46:00;4.57;;;3.05;;
10335;SDS011;5213;53.548;9.930;2023-06-14T00:48:26;3.92;;;3.05;;
10335;SDS011;5213;53.548;9.930;2023-06-14T00:50:53;3.00;;;2.80;;
10335;SDS011;5213;53.548;9.930;2023-06-14T00:53:20;2.92;;;2.70;;
10335;SDS011;5213;53.548;9.930;2023-06-14T00:55:47;4.50;;;3.17;;
10335;SDS011;5213;53.548;9.930;2023-06-14T00:58:14;3.50;;;2.90;;
10335;SDS011;5213;53.548;9.930;2023-06-14T01:00:40;3.63;;;2.92;;
10335;SDS011;5213;53.548;9.930;2023-06-14T01:03:06;3.88;;;3.47;;
10335;SDS011;5213;53.548;9.930;2023-06-14T01:05:37;4.40;;;2.90;;
10335;SDS011;5213;53.548;9.930;2023-06-14T01:08:22;5.50;;;3.17;;
10335;SDS011;5213;53.548;9.930;2023-06-14T01:10:56;3.17;;;2.83;;
10335;SDS011;5213;53.548;9.930;2023-06-14T01:13:27;3.78;;;2.97;;
10335;SDS011;5213;53.548;9.930;2023-06-14T01:15:55;4.75;;;2.97;;
10335;SDS011;5213;53.548;9.930;2023-06-14T01:18:22;3.47;;;3.05;;
10335;SDS011;5213;53.548;9.930;2023-06-14T01:20:49;4.68;;;3.30;;
10335;SDS011;5213;53.548;9.930;2023-06-14T01:23:19;4.00;;;2.90;;
10335;SDS011;5213;53.548;9.930;2023-06-14T01:25:45;4.40;;;2.95;;
10335;SDS011;5213;53.548;9.930;2023-06-14T01:28:12;3.38;;;2.97;;
10335;SDS011;5213;53.548;9.930;2023-06-14T01:30:40;4.30;;;2.85;;
10335;SDS011;5213;53.548;9.930;2023-06-14T01:33:17;3.58;;;3.13;;
10335;SDS011;5213;53.548;9.930;2023-06-14T01:35:45;3.58;;;3.22;;
10335;SDS011;5213;53.548;9.930;2023-06-14T01:38:12;3.47;;;2.80;;
10335;SDS011;5213;53.548;9.930;2023-06-14T01:40:38;4.22;;;3.33;;
10335;SDS011;5213;53.548;9.930;2023-06-14T01:43:04;4.00;;;3.15;;
10335;SDS011;5213;53.548;9.930;2023-06-14T01:45:31;5.60;;;3.22;;
10335;SDS011;5213;53.548;9.930;2023-06-14T01:47:58;3.53;;;2.92;;
10335;SDS011;5213;53.548;9.930;2023-06-14T01:50:27;3.50;;;2.90;;
10335;SDS011;5213;53.548;9.930;2023-06-14T01:52:54;3.53;;;3.10;;
10335;SDS011;5213;53.548;9.930;2023-06-14T01:55:20;3.33;;;3.03;;
10335;SDS011;5213;53.548;9.930;2023-06-14T01:57:47;4.63;;;3.08;;
10335;SDS011;5213;53.548;9.930;2023-06-14T02:00:13;5.55;;;3.28;;
10335;SDS011;5213;53.548;9.930;2023-06-14T02:02:41;5.55;;;3.30;;
10335;SDS011;5213;53.548;9.930;2023-06-14T02:05:07;6.30;;;3.17;;
10335;SDS011;5213;53.548;9.930;2023-06-14T02:07:34;5.72;;;3.28;;
10335;SDS011;5213;53.548;9.930;2023-06-14T02:10:00;4.03;;;3.33;;
10335;SDS011;5213;53.548;9.930;2023-06-14T02:12:26;5.28;;;3.10;;
10335;SDS011;5213;53.548;9.930;2023-06-14T02:14:52;5.70;;;3.22;;
10335;SDS011;5213;53.548;9.930;2023-06-14T02:17:19;3.75;;;3.38;;
10335;SDS011;5213;53.548;9.930;2023-06-14T02:19:45;4.60;;;3.40;;
10335;SDS011;5213;53.548;9.930;2023-06-14T02:22:11;4.93;;;3.10;;
10335;SDS011;5213;53.548;9.930;2023-06-14T02:24:39;3.67;;;3.20;;
10335;SDS011;5213;53.548;9.930;2023-06-14T02:27:05;7.68;;;3.25;;
10335;SDS011;5213;53.548;9.930;2023-06-14T02:29:32;5.18;;;3.20;;
10335;SDS011;5213;53.548;9.930;2023-06-14T02:31:58;3.50;;;3.17;;
10335;SDS011;5213;53.548;9.930;2023-06-14T02:34:24;3.63;;;3.30;;
10335;SDS011;5213;53.548;9.930;2023-06-14T02:36:50;5.45;;;3.20;;
10335;SDS011;5213;53.548;9.930;2023-06-14T02:39:17;3.47;;;3.00;;
10335;SDS011;5213;53.548;9.930;2023-06-14T02:41:45;4.03;;;3.30;;
10335;SDS011;5213;53.548;9.930;2023-06-14T02:44:13;7.10;;;3.60;;
10335;SDS011;5213;53.548;9.930;2023-06-14T02:46:39;5.68;;;3.40;;
10335;SDS011;5213;53.548;9.930;2023-06-14T02:49:06;4.72;;;3.33;;
10335;SDS011;5213;53.548;9.930;2023-06-14T02:51:32;6.25;;;3.50;;
10335;SDS011;5213;53.548;9.930;2023-06-14T02:53:58;3.50;;;3.20;;
10335;SDS011;5213;53.548;9.930;2023-06-14T02:56:24;5.03;;;3.95;;
10335;SDS011;5213;53.548;9.930;2023-06-14T02:58:51;4.32;;;3.55;;
10335;SDS011;5213;53.548;9.930;2023-06-14T03:01:18;5.13;;;3.75;;
10335;SDS011;5213;53.548;9.930;2023-06-14T03:03:45;5.20;;;3.40;;
10335;SDS011;5213;53.548;9.930;2023-06-14T03:06:11;4.55;;;3.17;;
10335;SDS011;5213;53.548;9.930;2023-06-14T03:08:39;6.53;;;3.80;;
10335;SDS011;5213;53.548;9.930;2023-06-14T03:11:06;5.95;;;3.58;;
10335;SDS011;5213;53.548;9.930;2023-06-14T03:13:34;5.90;;;3.65;;
10335;SDS011;5213;53.548;9.930;2023-06-14T03:16:00;4.20;;;3.45;;
10335;SDS011;5213;53.548;9.930;2023-06-14T03:18:28;4.30;;;3.58;;
10335;SDS011;5213;53.548;9.930;2023-06-14T03:20:55;4.90;;;3.20;;
10335;SDS011;5213;53.548;9.930;2023-06-14T03:23:23;5.55;;;3.78;;
10335;SDS011;5213;53.548;9.930;2023-06-14T03:25:50;6.32;;;3.50;;
10335;SDS011;5213;53.548;9.930;2023-06-14T03:28:16;4.53;;;3.33;;
10335;SDS011;5213;53.548;9.930;2023-06-14T03:30:42;5.72;;;3.67;;
10335;SDS011;5213;53.548;9.930;2023-06-14T03:33:08;6.05;;;3.45;;
10335;SDS011;5213;53.548;9.930;2023-06-14T03:35:35;4.85;;;3.63;;
10335;SDS011;5213;53.548;9.930;2023-06-14T03:38:01;5.05;;;3.60;;
10335;SDS011;5213;53.548;9.930;2023-06-14T03:40:28;4.57;;;3.53;;
10335;SDS011;5213;53.548;9.930;2023-06-14T03:42:54;6.50;;;3.67;;
10335;SDS011;5213;53.548;9.930;2023-06-14T03:45:21;6.20;;;3.95;;
10335;SDS011;5213;53.548;9.930;2023-06-14T03:47:47;6.18;;;3.75;;
10335;SDS011;5213;53.548;9.930;2023-06-14T03:50:13;5.00;;;3.65;;
10335;SDS011;5213;53.548;9.930;2023-06-14T03:52:40;4.45;;;3.72;;
10335;SDS011;5213;53.548;9.930;2023-06-14T03:55:08;4.40;;;3.53;;
10335;SDS011;5213;53.548;9.930;2023-06-14T03:57:35;5.40;;;3.90;;
10335;SDS011;5213;53.548;9.930;2023-06-14T04:00:01;5.05;;;3.88;;
10335;SDS011;5213;53.548;9.930;2023-06-14T04:02:30;5.70;;;3.53;;
10335;SDS011;5213;53.548;9.930;2023-06-14T04:04:56;4.25;;;3.50;;
10335;SDS011;5213;53.548;9.930;2023-06-14T04:07:22;6.80;;;3.60;;
10335;SDS011;5213;53.548;9.930;2023-06-14T04:09:48;5.40;;;4.03;;
10335;SDS011;5213;53.548;9.930;2023-06-14T04:12:14;4.13;;;3.78;;
10335;SDS011;5213;53.548;9.930;2023-06-14T04:14:40;5.93;;;3.83;;
10335;SDS011;5213;53.548;9.930;2023-06-14T04:17:06;5.38;;;3.38;;
10335;SDS011;5213;53.548;9.930;2023-06-14T04:19:32;6.13;;;3.70;;
10335;SDS011;5213;53.548;9.930;2023-06-14T04:21:59;6.15;;;3.63;;
10335;SDS011;5213;53.548;9.930;2023-06-14T04:24:26;3.95;;;3.53;;
10335;SDS011;5213;53.548;9.930;2023-06-14T04:26:56;5.78;;;3.47;;
10335;SDS011;5213;53.548;9.930;2023-06-14T04:29:23;5.28;;;3.28;;
10335;SDS011;5213;53.548;9.930;2023-06-14T04:31:51;5.20;;;3.50;;
10335;SDS011;5213;53.548;9.930;2023-06-14T04:34:18;3.90;;;3.35;;
10335;SDS011;5213;53.548;9.930;2023-06-14T04:36:44;3.33;;;3.10;;
10335;SDS011;5213;53.548;9.930;2023-06-14T04:39:14;4.85;;;3.33;;
10335;SDS011;5213;53.548;9.930;2023-06-14T04:41:40;5.18;;;3.38;;
10335;SDS011;5213;53.548;9.930;2023-06-14T04:44:06;4.50;;;3.40;;
10335;SDS011;5213;53.548;9.930;2023-06-14T04:46:32;7.47;;;3.58;;
10335;SDS011;5213;53.548;9.930;2023-06-14T04:49:09;3.95;;;3.33;;
10335;SDS011;5213;53.548;9.930;2023-06-14T04:51:35;3.70;;;3.20;;
10335;SDS011;5213;53.548;9.930;2023-06-14T04:54:02;8.30;;;3.70;;
10335;SDS011;5213;53.548;9.930;2023-06-14T04:56:28;7.10;;;3.50;;
10335;SDS011;5213;53.548;9.930;2023-06-14T04:58:55;4.35;;;3.55;;
10335;SDS011;5213;53.548;9.930;2023-06-14T05:01:21;4.82;;;3.42;;
10335;SDS011;5213;53.548;9.930;2023-06-14T05:03:51;7.53;;;3.33;;
10335;SDS011;5213;53.548;9.930;2023-06-14T05:06:17;5.80;;;3.47;;
10335;SDS011;5213;53.548;9.930;2023-06-14T05:08:43;7.03;;;3.58;;
10335;SDS011;5213;53.548;9.930;2023-06-14T05:11:09;8.65;;;3.42;;
10335;SDS011;5213;53.548;9.930;2023-06-14T05:13:35;5.65;;;3.83;;
10335;SDS011;5213;53.548;9.930;2023-06-14T05:16:01;4.22;;;3.42;;
10335;SDS011;5213;53.548;9.930;2023-06-14T05:18:28;5.95;;;3.80;;
10335;SDS011;5213;53.548;9.930;2023-06-14T05:20:54;4.93;;;3.40;;
10335;SDS011;5213;53.548;9.930;2023-06-14T05:23:20;5.50;;;3.42;;
10335;SDS011;5213;53.548;9.930;2023-06-14T05:25:46;7.10;;;3.60;;
10335;SDS011;5213;53.548;9.930;2023-06-14T05:28:12;4.88;;;3.45;;
10335;SDS011;5213;53.548;9.930;2023-06-14T05:30:38;5.72;;;3.10;;
10335;SDS011;5213;53.548;9.930;2023-06-14T05:33:05;3.47;;;3.17;;
10335;SDS011;5213;53.548;9.930;2023-06-14T05:35:31;6.28;;;3.70;;
10335;SDS011;5213;53.548;9.930;2023-06-14T05:37:57;7.20;;;3.50;;
10335;SDS011;5213;53.548;9.930;2023-06-14T05:40:23;5.88;;;3.67;;
10335;SDS011;5213;53.548;9.930;2023-06-14T05:42:49;5.85;;;3.50;;
10335;SDS011;5213;53.548;9.930;2023-06-14T05:45:16;4.93;;;3.33;;
10335;SDS011;5213;53.548;9.930;2023-06-14T05:47:42;5.55;;;3.22;;
10335;SDS011;5213;53.548;9.930;2023-06-14T05:50:08;5.93;;;3.60;;
10335;SDS011;5213;53.548;9.930;2023-06-14T05:52:35;7.57;;;3.70;;
10335;SDS011;5213;53.548;9.930;2023-06-14T05:55:02;4.35;;;3.25;;
10335;SDS011;5213;53.548;9.930;2023-06-14T05:57:28;5.45;;;3.47;;
10335;SDS011;5213;53.548;9.930;2023-06-14T05:59:54;7.60;;;3.40;;
10335;SDS011;5213;53.548;9.930;2023-06-14T06:02:20;4.15;;;3.50;;
10335;SDS011;5213;53.548;9.930;2023-06-14T06:04:46;7.63;;;3.75;;
10335;SDS011;5213;53.548;9.930;2023-06-14T06:07:12;5.10;;;3.08;;
10335;SDS011;5213;53.548;9.930;2023-06-14T06:09:38;8.90;;;3.70;;
10335;SDS011;5213;53.548;9.930;2023-06-14T06:12:05;5.03;;;3.17;;
10335;SDS011;5213;53.548;9.930;2023-06-14T06:14:32;5.22;;;3.25;;
10335;SDS011;5213;53.548;9.930;2023-06-14T06:16:58;5.47;;;3.45;;
10335;SDS011;5213;53.548;9.930;2023-06-14T06:19:24;5.15;;;3.53;;
10335;SDS011;5213;53.548;9.930;2023-06-14T06:21:50;5.20;;;3.42;;
10335;SDS011;5213;53.548;9.930;2023-06-14T06:24:16;4.38;;;3.38;;
10335;SDS011;5213;53.548;9.930;2023-06-14T06:26:42;4.28;;;3.17;;
10335;SDS011;5213;53.548;9.930;2023-06-14T06:29:08;6.40;;;3.60;;
10335;SDS011;5213;53.548;9.930;2023-06-14T06:31:35;5.88;;;3.38;;
10335;SDS011;5213;53.548;9.930;2023-06-14T06:34:01;5.53;;;3.97;;
10335;SDS011;5213;53.548;9.930;2023-06-14T06:36:27;10.27;;;3.90;;
10335;SDS011;5213;53.548;9.930;2023-06-14T06:38:53;4.82;;;3.22;;
10335;SDS011;5213;53.548;9.930;2023-06-14T06:41:20;6.55;;;3.50;;
10335;SDS011;5213;53.548;9.930;2023-06-14T06:43:46;3.88;;;3.13;;
10335;SDS011;5213;53.548;9.930;2023-06-14T06:46:12;4.30;;;3.22;;
10335;SDS011;5213;53.548;9.930;2023-06-14T06:48:38;4.30;;;2.80;;
10335;SDS011;5213;53.548;9.930;2023-06-14T06:51:04;4.10;;;3.10;;
10335;SDS011;5213;53.548;9.930;2023-06-14T06:53:30;3.42;;;3.13;;
10335;SDS011;5213;53.548;9.930;2023-06-14T06:55:56;4.45;;;3.13;;
10335;SDS011;5213;53.548;9.930;2023-06-14T06:58:22;2.78;;;2.47;;
10335;SDS011;5213;53.548;9.930;2023-06-14T07:00:48;4.28;;;2.92;;
10335;SDS011;5213;53.548;9.930;2023-06-14T07:03:15;7.13;;;3.10;;
10335;SDS011;5213;53.548;9.930;2023-06-14T07:05:41;3.33;;;2.83;;
10335;SDS011;5213;53.548;9.930;2023-06-14T07:08:07;4.47;;;3.13;;
10335;SDS011;5213;53.548;9.930;2023-06-14T07:10:33;7.10;;;3.00;;
10335;SDS011;5213;53.548;9.930;2023-06-14T07:12:59;3.28;;;2.60;;
10335;SDS011;5213;53.548;9.930;2023-06-14T07:15:25;3.45;;;2.72;;
10335;SDS011;5213;53.548;9.930;2023-06-14T07:17:51;3.35;;;2.72;;
10335;SDS011;5213;53.548;9.930;2023-06-14T07:20:18;3.53;;;2.70;;
10335;SDS011;5213;53.548;9.930;2023-06-14T07:22:46;4.80;;;2.67;;
10335;SDS011;5213;53.548;9.930;2023-06-14T07:25:12;4.65;;;2.60;;
10335;SDS011;5213;53.548;9.930;2023-06-14T07:27:39;4.28;;;2.63;;
10335;SDS011;5213;53.548;9.930;2023-06-14T07:30:06;5.00;;;2.90;;
10335;SDS011;5213;53.548;9.930;2023-06-14T07:32:32;2.50;;;2.08;;
10335;SDS011;5213;53.548;9.930;2023-06-14T07:34:58;5.28;;;2.60;;
10335;SDS011;5213;53.548;9.930;2023-06-14T07:37:24;2.30;;;2.10;;
10335;SDS011;5213;53.548;9.930;2023-06-14T07:39:50;3.15;;;2.60;;
10335;SDS011;5213;53.548;9.930;2023-06-14T07:42:16;2.72;;;2.22;;
10335;SDS011;5213;53.548;9.930;2023-06-14T07:44:42;3.50;;;2.50;;
10335;SDS011;5213;53.548;9.930;2023-06-14T07:47:08;2.95;;;2.45;;
10335;SDS011;5213;53.548;9.930;2023-06-14T07:49:35;3.63;;;2.40;;
10335;SDS011;5213;53.548;9.930;2023-06-14T07:52:01;2.50;;;2.30;;
10335;SDS011;5213;53.548;9.930;2023-06-14T07:54:27;4.78;;;2.30;;
10335;SDS011;5213;53.548;9.930;2023-06-14T07:56:53;3.20;;;2.40;;
10335;SDS011;5213;53.548;9.930;2023-06-14T07:59:20;4.05;;;2.53;;
10335;SDS011;5213;53.548;9.930;2023-06-14T08:01:47;2.83;;;2.55;;
10335;SDS011;5213;53.548;9.930;2023-06-14T08:04:13;3.22;;;2.65;;
10335;SDS011;5213;53.548;9.930;2023-06-14T08:06:40;2.72;;;2.53;;
10335;SDS011;5213;53.548;9.930;2023-06-14T08:09:09;2.50;;;2.30;;
10335;SDS011;5213;53.548;9.930;2023-06-14T08:11:35;3.05;;;2.60;;
10335;SDS011;5213;53.548;9.930;2023-06-14T08:14:01;2.63;;;2.42;;
10335;SDS011;5213;53.548;9.930;2023-06-14T08:16:27;3.72;;;2.80;;
10335;SDS011;5213;53.548;9.930;2023-06-14T08:18:54;2.75;;;2.55;;
10335;SDS011;5213;53.548;9.930;2023-06-14T08:21:20;5.18;;;2.60;;
10335;SDS011;5213;53.548;9.930;2023-06-14T08:23:47;3.97;;;2.70;;
10335;SDS011;5213;53.548;9.930;2023-06-14T08:26:13;2.88;;;2.60;;
10335;SDS011;5213;53.548;9.930;2023-06-14T08:28:39;3.20;;;2.80;;
10335;SDS011;5213;53.548;9.930;2023-06-14T08:31:05;4.78;;;2.75;;
10335;SDS011;5213;53.548;9.930;2023-06-14T08:33:31;4.03;;;2.60;;
10335;SDS011;5213;53.548;9.930;2023-06-14T08:36:00;4.00;;;2.75;;
10335;SDS011;5213;53.548;9.930;2023-06-14T08:38:26;3.70;;;2.70;;
10335;SDS011;5213;53.548;9.930;2023-06-14T08:40:52;3.85;;;2.75;;
10335;SDS011;5213;53.548;9.930;2023-06-14T08:43:22;4.55;;;2.78;;
10335;SDS011;5213;53.548;9.930;2023-06-14T08:45:48;4.15;;;2.65;;
10335;SDS011;5213;53.548;9.930;2023-06-14T08:48:15;6.18;;;3.00;;
10335;SDS011;5213;53.548;9.930;2023-06-14T08:50:42;3.58;;;3.08;;
10335;SDS011;5213;53.548;9.930;2023-06-14T08:53:09;2.70;;;2.50;;
10335;SDS011;5213;53.548;9.930;2023-06-14T08:55:38;3.00;;;2.70;;
10335;SDS011;5213;53.548;9.930;2023-06-14T08:58:04;5.90;;;3.10;;
10335;SDS011;5213;53.548;9.930;2023-06-14T09:00:30;3.15;;;2.78;;
10335;SDS011;5213;53.548;9.930;2023-06-14T09:02:57;3.97;;;2.65;;
10335;SDS011;5213;53.548;9.930;2023-06-14T09:05:24;4.65;;;2.90;;
10335;SDS011;5213;53.548;9.930;2023-06-14T09:07:50;3.90;;;2.85;;
10335;SDS011;5213;53.548;9.930;2023-06-14T09:10:17;3.67;;;2.80;;
10335;SDS011;5213;53.548;9.930;2023-06-14T09:12:43;8.40;;;3.08;;
10335;SDS011;5213;53.548;9.930;2023-06-14T09:15:09;4.53;;;2.55;;
10335;SDS011;5213;53.548;9.930;2023-06-14T09:17:36;3.45;;;2.70;;
10335;SDS011;5213;53.548;9.930;2023-06-14T09:20:02;3.47;;;2.70;;
10335;SDS011;5213;53.548;9.930;2023-06-14T09:22:35;2.90;;;2.70;;
10335;SDS011;5213;53.548;9.930;2023-06-14T09:25:02;3.40;;;3.10;;
10335;SDS011;5213;53.548;9.930;2023-06-14T09:27:28;3.72;;;3.15;;
10335;SDS011;5213;53.548;9.930;2023-06-14T09:29:54;4.47;;;2.60;;
10335;SDS011;5213;53.548;9.930;2023-06-14T09:32:21;4.10;;;2.83;;
10335;SDS011;5213;53.548;9.930;2023-06-14T09:34:48;3.65;;;2.90;;
10335;SDS011;5213;53.548;9.930;2023-06-14T09:37:30;2.53;;;2.33;;
10335;SDS011;5213;53.548;9.930;2023-06-14T09:39:56;3.50;;;2.90;;
10335;SDS011;5213;53.548;9.930;2023-06-14T09:42:23;4.38;;;2.70;;
10335;SDS011;5213;53.548;9.930;2023-06-14T09:44:53;3.20;;;2.63;;
10335;SDS011;5213;53.548;9.930;2023-06-14T09:47:20;3.80;;;2.88;;
10335;SDS011;5213;53.548;9.930;2023-06-14T09:49:46;2.88;;;2.63;;
10335;SDS011;5213;53.548;9.930;2023-06-14T09:52:16;3.17;;;2.72;;
10335;SDS011;5213;53.548;9.930;2023-06-14T09:54:43;5.07;;;2.80;;
10335;SDS011;5213;53.548;9.930;2023-06-14T09:57:14;4.55;;;2.88;;
10335;SDS011;5213;53.548;9.930;2023-06-14T09:59:44;4.32;;;2.78;;
10335;SDS011;5213;53.548;9.930;2023-06-14T10:02:31;5.40;;;2.95;;
10335;SDS011;5213;53.548;9.930;2023-06-14T10:05:03;4.18;;;3.08;;
10335;SDS011;5213;53.548;9.930;2023-06-14T10:07:40;4.38;;;3.10;;
10335;SDS011;5213;53.548;9.930;2023-06-14T10:10:08;3.83;;;2.88;;
10335;SDS011;5213;53.548;9.930;2023-06-14T10:12:34;5.80;;;2.70;;
10335;SDS011;5213;53.548;9.930;2023-06-14T10:15:00;6.80;;;3.00;;
10335;SDS011;5213;53.548;9.930;2023-06-14T10:20:07;4.55;;;2.92;;
10335;SDS011;5213;53.548;9.930;2023-06-14T10:22:38;5.22;;;3.10;;
10335;SDS011;5213;53.548;9.930;2023-06-14T10:25:07;4.65;;;3.10;;
10335;SDS011;5213;53.548;9.930;2023-06-14T10:27:37;3.63;;;2.85;;
10335;SDS011;5213;53.548;9.930;2023-06-14T10:30:03;5.22;;;2.97;;
10335;SDS011;5213;53.548;9.930;2023-06-14T10:32:29;5.60;;;2.88;;
10335;SDS011;5213;53.548;9.930;2023-06-14T10:34:58;4.57;;;2.97;;
10335;SDS011;5213;53.548;9.930;2023-06-14T10:37:24;3.40;;;2.90;;
10335;SDS011;5213;53.548;9.930;2023-06-14T10:39:51;3.60;;;3.28;;
10335;SDS011;5213;53.548;9.930;2023-06-14T10:42:18;3.15;;;2.90;;
10335;SDS011;5213;53.548;9.930;2023-06-14T10:44:54;2.95;;;2.75;;
10335;SDS011;5213;53.548;9.930;2023-06-14T10:49:51;3.20;;;2.90;;
10335;SDS011;5213;53.548;9.930;2023-06-14T10:52:20;7.18;;;3.35;;
10335;SDS011;5213;53.548;9.930;2023-06-14T10:57:34;3.38;;;3.08;;
10335;SDS011;5213;53.548;9.930;2023-06-14T11:00:00;2.75;;;2.50;;
10335;SDS011;5213;53.548;9.930;2023-06-14T11:05:25;4.50;;;2.65;;
10335;SDS011;5213;53.548;9.930;2023-06-14T11:07:58;3.50;;;3.20;;
10335;SDS011;5213;53.548;9.930;2023-06-14T11:10:45;3.55;;;3.20;;
10335;SDS011;5213;53.548;9.930;2023-06-14T11:13:12;2.85;;;2.65;;
10335;SDS011;5213;53.548;9.930;2023-06-14T11:15:38;3.25;;;2.95;;
10335;SDS011;5213;53.548;9.930;2023-06-14T11:18:05;3.67;;;2.80;;
10335;SDS011;5213;53.548;9.930;2023-06-14T11:20:33;5.40;;;2.78;;
10335;SDS011;5213;53.548;9.930;2023-06-14T11:23:00;6.03;;;2.90;;
10335;SDS011;5213;53.548;9.930;2023-06-14T11:25:26;5.13;;;2.80;;
10335;SDS011;5213;53.548;9.930;2023-06-14T11:27:56;3.53;;;2.95;;
10335;SDS011;5213;53.548;9.930;2023-06-14T11:30:22;5.07;;;3.08;;
10335;SDS011;5213;53.548;9.930;2023-06-14T11:32:50;5.65;;;3.10;;
10335;SDS011;5213;53.548;9.930;2023-06-14T11:35:17;4.50;;;3.10;;
10335;SDS011;5213;53.548;9.930;2023-06-14T11:37:43;4.30;;;3.00;;
10335;SDS011;5213;53.548;9.930;2023-06-14T11:40:10;3.53;;;2.88;;
10335;SDS011;5213;53.548;9.930;2023-06-14T11:42:37;4.90;;;3.10;;
10335;SDS011;5213;53.548;9.930;2023-06-14T11:45:03;7.53;;;3.20;;
10335;SDS011;5213;53.548;9.930;2023-06-14T11:47:34;3.50;;;2.72;;
10335;SDS011;5213;53.548;9.930;2023-06-14T11:50:00;4.30;;;3.25;;
10335;SDS011;5213;53.548;9.930;2023-06-14T11:52:27;6.03;;;2.80;;
10335;SDS011;5213;53.548;9.930;2023-06-14T11:54:53;3.85;;;3.00;;
10335;SDS011;5213;53.548;9.930;2023-06-14T11:57:19;5.43;;;2.80;;
10335;SDS011;5213;53.548;9.930;2023-06-14T11:59:45;4.22;;;3.10;;
10335;SDS011;5213;53.548;9.930;2023-06-14T12:02:18;5.45;;;3.20;;
10335;SDS011;5213;53.548;9.930;2023-06-14T12:04:48;5.68;;;2.97;;
10335;SDS011;5213;53.548;9.930;2023-06-14T12:07:15;6.95;;;3.72;;
10335;SDS011;5213;53.548;9.930;2023-06-14T12:09:42;5.95;;;3.20;;
10335;SDS011;5213;53.548;9.930;2023-06-14T12:12:09;3.70;;;3.22;;
10335;SDS011;5213;53.548;9.930;2023-06-14T12:14:35;5.45;;;3.00;;
10335;SDS011;5213;53.548;9.930;2023-06-14T12:17:05;4.40;;;3.20;;
10335;SDS011;5213;53.548;9.930;2023-06-14T12:19:43;3.58;;;2.75;;
10335;SDS011;5213;53.548;9.930;2023-06-14T12:22:10;8.13;;;2.80;;
10335;SDS011;5213;53.548;9.930;2023-06-14T12:24:36;6.55;;;2.70;;
10335;SDS011;5213;53.548;9.930;2023-06-14T12:27:06;3.85;;;3.00;;
10335;SDS011;5213;53.548;9.930;2023-06-14T12:29:32;5.32;;;3.03;;
10335;SDS011;5213;53.548;9.930;2023-06-14T12:31:58;3.60;;;3.00;;
10335;SDS011;5213;53.548;9.930;2023-06-14T12:34:24;3.92;;;2.80;;
10335;SDS011;5213;53.548;9.930;2023-06-14T12:36:51;4.18;;;2.67;;
10335;SDS011;5213;53.548;9.930;2023-06-14T12:39:18;5.28;;;2.83;;
10335;SDS011;5213;53.548;9.930;2023-06-14T12:41:44;6.35;;;2.90;;
10335;SDS011;5213;53.548;9.930;2023-06-14T12:44:11;5.88;;;3.17;;
10335;SDS011;5213;53.548;9.930;2023-06-14T12:46:37;4.55;;;2.92;;
10335;SDS011;5213;53.548;9.930;2023-06-14T12:49:07;4.47;;;2.92;;
10335;SDS011;5213;53.548;9.930;2023-06-14T12:51:33;4.43;;;2.88;;
10335;SDS011;5213;53.548;9.930;2023-06-14T12:53:59;3.45;;;3.05;;
10335;SDS011;5213;53.548;9.930;2023-06-14T12:56:25;3.70;;;3.10;;
10335;SDS011;5213;53.548;9.930;2023-06-14T12:58:52;3.67;;;3.22;;
10335;SDS011;5213;53.548;9.930;2023-06-14T13:01:18;5.85;;;3.33;;
10335;SDS011;5213;53.548;9.930;2023-06-14T13:03:48;4.65;;;3.15;;
10335;SDS011;5213;53.548;9.930;2023-06-14T13:06:15;5.82;;;3.33;;
10335;SDS011;5213;53.548;9.930;2023-06-14T13:08:41;3.42;;;2.65;;
10335;SDS011;5213;53.548;9.930;2023-06-14T13:11:08;4.93;;;3.00;;
10335;SDS011;5213;53.548;9.930;2023-06-14T13:13:34;3.92;;;2.80;;
10335;SDS011;5213;53.548;9.930;2023-06-14T13:16:00;3.78;;;2.83;;
10335;SDS011;5213;53.548;9.930;2023-06-14T13:18:26;4.25;;;2.80;;
10335;SDS011;5213;53.548;9.930;2023-06-14T13:20:52;3.58;;;2.90;;
10335;SDS011;5213;53.548;9.930;2023-06-14T13:23:18;3.90;;;2.95;;
10335;SDS011;5213;53.548;9.930;2023-06-14T13:25:44;2.85;;;2.63;;
10335;SDS011;5213;53.548;9.930;2023-06-14T13:28:10;5.00;;;2.85;;
10335;SDS011;5213;53.548;9.930;2023-06-14T13:30:36;5.15;;;2.80;;
10335;SDS011;5213;53.548;9.930;2023-06-14T13:33:02;4.57;;;3.08;;
10335;SDS011;5213;53.548;9.930;2023-06-14T13:35:28;6.70;;;2.80;;
10335;SDS011;5213;53.548;9.930;2023-06-14T13:37:55;7.47;;;3.38;;
10335;SDS011;5213;53.548;9.930;2023-06-14T13:40:20;2.92;;;2.63;;
10335;SDS011;5213;53.548;9.930;2023-06-14T13:42:47;3.55;;;2.80;;
10335;SDS011;5213;53.548;9.930;2023-06-14T13:45:13;3.17;;;2.88;;
10335;SDS011;5213;53.548;9.930;2023-06-14T13:47:39;4.88;;;2.90;;
10335;SDS011;5213;53.548;9.930;2023-06-14T13:50:05;3.30;;;3.00;;
10335;SDS011;5213;53.548;9.930;2023-06-14T13:52:32;4.35;;;2.70;;
10335;SDS011;5213;53.548;9.930;2023-06-14T13:54:58;3.22;;;2.80;;
10335;SDS011;5213;53.548;9.930;2023-06-14T13:57:25;4.35;;;3.08;;
10335;SDS011;5213;53.548;9.930;2023-06-14T13:59:51;6.55;;;2.83;;
10335;SDS011;5213;53.548;9.930;2023-06-14T14:02:20;4.13;;;2.70;;
10335;SDS011;5213;53.548;9.930;2023-06-14T14:04:46;5.57;;;2.90;;
10335;SDS011;5213;53.548;9.930;2023-06-14T14:07:18;3.13;;;2.88;;
10335;SDS011;5213;53.548;9.930;2023-06-14T14:09:45;8.43;;;2.90;;
10335;SDS011;5213;53.548;9.930;2023-06-14T14:12:12;3.88;;;3.20;;
10335;SDS011;5213;53.548;9.930;2023-06-14T14:14:39;4.03;;;2.90;;
10335;SDS011;5213;53.548;9.930;2023-06-14T14:17:05;4.22;;;3.28;;
10335;SDS011;5213;53.548;9.930;2023-06-14T14:19:31;4.40;;;3.00;;
10335;SDS011;5213;53.548;9.930;2023-06-14T14:21:58;3.15;;;2.83;;
10335;SDS011;5213;53.548;9.930;2023-06-14T14:24:24;3.67;;;2.92;;
10335;SDS011;5213;53.548;9.930;2023-06-14T14:26:50;3.15;;;2.83;;
10335;SDS011;5213;53.548;9.930;2023-06-14T14:29:18;3.72;;;3.30;;
10335;SDS011;5213;53.548;9.930;2023-06-14T14:31:44;3.72;;;3.10;;
10335;SDS011;5213;53.548;9.930;2023-06-14T14:34:11;4.30;;;3.13;;
10335;SDS011;5213;53.548;9.930;2023-06-14T14:36:37;3.38;;;2.60;;
10335;SDS011;5213;53.548;9.930;2023-06-14T14:39:07;3.97;;;2.88;;
10335;SDS011;5213;53.548;9.930;2023-06-14T14:41:33;7.13;;;2.90;;
10335;SDS011;5213;53.548;9.930;2023-06-14T14:43:59;5.25;;;3.10;;
10335;SDS011;5213;53.548;9.930;2023-06-14T14:46:25;3.53;;;3.15;;
10335;SDS011;5213;53.548;9.930;2023-06-14T14:48:51;4.55;;;2.60;;
10335;SDS011;5213;53.548;9.930;2023-06-14T14:51:17;2.90;;;2.70;;
10335;SDS011;5213;53.548;9.930;2023-06-14T14:53:43;3.17;;;2.88;;
10335;SDS011;5213;53.548;9.930;2023-06-14T14:56:10;4.93;;;3.17;;
10335;SDS011;5213;53.548;9.930;2023-06-14T14:58:37;3.63;;;2.78;;
10335;SDS011;5213;53.548;9.930;2023-06-14T15:01:03;5.40;;;3.10;;
10335;SDS011;5213;53.548;9.930;2023-06-14T15:03:30;4.55;;;2.58;;
10335;SDS011;5213;53.548;9.930;2023-06-14T15:05:56;3.20;;;2.90;;
10335;SDS011;5213;53.548;9.930;2023-06-14T15:08:22;5.45;;;3.17;;
10335;SDS011;5213;53.548;9.930;2023-06-14T15:10:49;5.35;;;2.80;;